Aviation Digital Data Service (ADDS)

Output produced by METARs form (2343 UTC 02 September 2014)
found at http://aviationweather.gov/adds/metars/
 
KDEN 022329Z 0300/0406 08008KT P6SM FEW090 
     FM030100 15008KT P6SM FEW150 
     FM030300 18012KT P6SM SKC 
     FM030700 21009KT P6SM SKC 
     FM031500 23010KT P6SM SKC 
     FM032000 23010KT P6SM SCT090